Parsonsfield, Maine
Current Conditions -  °F | °C
As of 12:54 PM on Friday 24 Oct 2014 (Local Time) from KIZG Reporting Station
Overcast Overcast  
Wind Chill: 50°   Ceiling: 6000
Heat Index: 50°   Visibility: 10mi
Dew Point: 46°   Wind: 8mph
Humidity: 86%   Direction: 360°N
Pressure: 29.7"   Gusts: NA
Location:  43.73°N, 70.93°W
Report Text: KIZG 241654Z AUTO 36007KT 10SM FEW014 SCT040 OVC060 10/08 A2970 RMK AO2 RAE05 SLP060 P0000 T01000078
Loading
Personal Weather Stations






























Interactive Weather Map
Tropical Storm Tracking
New forecast layout! Learn more

10-Day Weather Forecast

Advertisements
Track Severe Weather on mobile